Thomson, Georgia
Current Conditions -  °F | °C
As of 3:55 PM on Thursday 23 Oct 2014 (Local Time) from KHQU Reporting Station
Clear Clear  
Wind Chill: 70°   Ceiling: Unl
Heat Index: 70°   Visibility: 10mi
Dew Point: 51°   Wind: 6mph
Humidity: 49%   Direction: 270°W
Pressure: 30.06"   Gusts: NA
Location:  33.47°N, 82.5°W
Report Text: KHQU 231955Z AUTO 27005KT 10SM CLR 21/10 A3006 RMK AO1 T02130103
Loading
Personal Weather Stations






























Interactive Weather Map
Tropical Storm Tracking
New forecast layout! Learn more

10-Day Weather Forecast

Advertisements
Track Severe Weather on mobile